createdAt,value
2018-07-26T00:00:32.803Z,5.25
2018-07-26T00:03:00.007Z,5.45
2018-07-26T00:05:27.305Z,5.80
2018-07-26T00:07:54.541Z,5.50
2018-07-26T00:10:21.781Z,5.25
2018-07-26T00:12:49.036Z,5.50
2018-07-26T00:15:16.213Z,5.22
2018-07-26T00:17:43.399Z,5.87
2018-07-26T00:20:10.577Z,6.30
2018-07-26T00:22:37.765Z,6.55
2018-07-26T00:25:04.969Z,6.20
2018-07-26T00:27:32.183Z,5.67
2018-07-26T00:29:59.322Z,6.80
2018-07-26T00:32:26.569Z,6.30
2018-07-26T00:34:53.765Z,5.67
2018-07-26T00:37:20.937Z,5.60
2018-07-26T00:39:48.166Z,6.60
2018-07-26T00:42:15.512Z,5.95
2018-07-26T00:44:42.717Z,6.37
2018-07-26T00:47:09.988Z,6.42
2018-07-26T00:49:37.236Z,7.30
2018-07-26T00:52:04.426Z,7.17
2018-07-26T00:54:31.635Z,6.42
2018-07-26T00:56:58.834Z,6.17
2018-07-26T00:59:26.010Z,6.37
2018-07-26T01:01:53.209Z,5.65
2018-07-26T01:04:20.394Z,6.22
2018-07-26T01:06:47.571Z,6.33
2018-07-26T01:09:14.791Z,6.20
2018-07-26T01:11:41.981Z,7.70
2018-07-26T01:14:09.161Z,6.50
2018-07-26T01:16:36.369Z,6.25
2018-07-26T01:19:03.989Z,6.67
2018-07-26T01:21:31.165Z,6.33
2018-07-26T01:23:58.364Z,7.03
2018-07-26T01:26:25.738Z,6.12
2018-07-26T01:28:52.992Z,6.25
2018-07-26T01:31:20.265Z,7.42
2018-07-26T01:33:47.449Z,6.08
2018-07-26T01:36:14.616Z,6.87
2018-07-26T01:38:41.802Z,6.10
2018-07-26T01:41:09.006Z,6.97
2018-07-26T01:43:47.424Z,7.80
2018-07-26T01:46:14.609Z,6.80
2018-07-26T01:48:42.882Z,6.75
2018-07-26T01:51:10.656Z,7.20
2018-07-26T01:53:37.832Z,6.70
2018-07-26T01:56:05.770Z,6.22
2018-07-26T01:58:32.969Z,6.83
2018-07-26T02:01:00.268Z,7.35
2018-07-26T02:03:27.428Z,6.90
2018-07-26T02:05:54.637Z,6.62
2018-07-26T02:08:21.827Z,6.78
2018-07-26T02:10:49.028Z,6.45
2018-07-26T02:13:16.227Z,6.90
2018-07-26T02:15:43.404Z,6.72
2018-07-26T02:18:10.584Z,7.05
2018-07-26T02:20:37.757Z,7.17
2018-07-26T02:23:05.140Z,6.20
2018-07-26T02:25:32.349Z,6.90
2018-07-26T02:27:59.552Z,6.92
2018-07-26T02:30:26.738Z,6.95
2018-07-26T02:32:54.003Z,6.80
2018-07-26T02:35:21.183Z,6.53
2018-07-26T02:37:48.445Z,7.05
2018-07-26T02:40:15.622Z,6.55
2018-07-26T02:42:42.808Z,7.05
2018-07-26T02:45:09.999Z,7.25
2018-07-26T02:47:37.202Z,7.08
2018-07-26T02:50:04.419Z,7.80
2018-07-26T02:52:31.598Z,6.97
2018-07-26T02:54:58.762Z,7.10
2018-07-26T02:57:25.952Z,8.88
2018-07-26T02:59:53.129Z,9.05
2018-07-26T03:02:20.360Z,10.10
2018-07-26T03:04:47.554Z,11.30
2018-07-26T03:07:14.771Z,10.65
2018-07-26T03:09:41.965Z,11.50
2018-07-26T03:12:09.222Z,11.73
2018-07-26T03:14:42.452Z,13.03
2018-07-26T03:17:09.822Z,12.95
2018-07-26T03:19:37.005Z,11.90
2018-07-26T03:22:04.487Z,13.03
2018-07-26T03:24:31.743Z,12.93
2018-07-26T03:26:58.931Z,10.38
2018-07-26T03:29:26.117Z,9.75
2018-07-26T03:31:53.314Z,10.85
2018-07-26T03:34:20.497Z,10.03
2018-07-26T03:36:47.694Z,10.45
2018-07-26T03:39:14.905Z,10.72
2018-07-26T03:41:42.087Z,9.40
2018-07-26T03:44:09.252Z,9.35
2018-07-26T03:46:36.466Z,10.40
2018-07-26T03:49:03.647Z,9.58
2018-07-26T03:51:30.837Z,9.90
2018-07-26T03:53:58.045Z,9.83
2018-07-26T03:56:25.434Z,10.75
2018-07-26T03:58:52.617Z,10.63
2018-07-26T04:01:19.804Z,13.88
2018-07-26T04:03:46.984Z,14.98
2018-07-26T04:06:14.193Z,15.95
2018-07-26T04:08:41.386Z,17.50
2018-07-26T04:11:08.580Z,17.23
2018-07-26T04:13:35.844Z,15.78
2018-07-26T04:16:03.097Z,15.32
2018-07-26T04:18:30.283Z,18.20
2018-07-26T04:20:57.467Z,15.05
2018-07-26T04:23:24.656Z,9.80
2018-07-26T04:25:51.881Z,10.10
2018-07-26T04:28:19.071Z,8.90
2018-07-26T04:30:46.283Z,8.70
2018-07-26T04:33:13.468Z,10.53
2018-07-26T04:35:40.700Z,10.55
2018-07-26T04:38:07.894Z,9.38
2018-07-26T04:40:35.103Z,10.32
2018-07-26T04:43:02.419Z,9.35
2018-07-26T04:45:29.592Z,8.58
2018-07-26T04:47:56.777Z,9.75
2018-07-26T04:50:23.965Z,8.35
2018-07-26T04:52:51.280Z,7.97
2018-07-26T04:55:18.476Z,9.03
2018-07-26T04:57:45.775Z,8.98
2018-07-26T05:00:12.982Z,8.63
2018-07-26T05:02:40.160Z,8.05
2018-07-26T05:05:07.418Z,7.30
2018-07-26T05:07:34.597Z,8.00
2018-07-26T05:10:01.780Z,8.68
2018-07-26T05:12:28.949Z,8.90
2018-07-26T05:14:56.139Z,7.83
2018-07-26T05:17:23.332Z,8.35
2018-07-26T05:19:50.509Z,7.20
2018-07-26T05:22:17.686Z,7.80
2018-07-26T05:24:45.896Z,8.20
2018-07-26T05:27:13.100Z,7.55
2018-07-26T05:29:40.300Z,7.65
2018-07-26T05:32:07.465Z,7.47
2018-07-26T05:34:34.658Z,7.00
2018-07-26T05:37:01.864Z,7.17
2018-07-26T05:39:29.049Z,6.53
2018-07-26T05:41:56.240Z,7.40
2018-07-26T05:44:23.552Z,6.78
2018-07-26T05:46:50.745Z,6.78
2018-07-26T05:49:17.966Z,5.75
2018-07-26T05:51:45.132Z,5.35
2018-07-26T05:54:12.321Z,6.58
2018-07-26T05:56:39.516Z,6.58
2018-07-26T05:59:06.710Z,7.22
2018-07-26T06:01:33.901Z,8.05
2018-07-26T06:04:01.106Z,7.15
2018-07-26T06:06:28.293Z,7.40
2018-07-26T06:08:55.557Z,8.68
2018-07-26T06:11:22.757Z,7.15
2018-07-26T06:13:49.933Z,6.70
2018-07-26T06:16:17.110Z,8.30
2018-07-26T06:18:44.321Z,8.48
2018-07-26T06:21:11.499Z,8.08
2018-07-26T06:23:38.737Z,6.92
2018-07-26T06:26:05.965Z,7.45
2018-07-26T06:28:33.136Z,6.80
2018-07-26T06:31:00.324Z,7.12
2018-07-26T06:33:27.559Z,6.90
2018-07-26T06:35:54.711Z,6.10
2018-07-26T06:38:21.901Z,6.62
2018-07-26T06:40:49.078Z,6.17
2018-07-26T06:43:16.260Z,7.35
2018-07-26T06:45:43.526Z,6.10
2018-07-26T06:48:10.725Z,6.42
2018-07-26T06:50:37.908Z,5.70
2018-07-26T06:53:05.171Z,6.22
2018-07-26T06:55:32.314Z,5.50
2018-07-26T06:57:59.512Z,6.15
2018-07-26T07:00:26.708Z,6.03
2018-07-26T07:02:53.877Z,6.70
2018-07-26T07:05:21.083Z,5.62
2018-07-26T07:07:48.279Z,5.37
2018-07-26T07:10:15.454Z,5.90
2018-07-26T07:12:42.664Z,5.60
2018-07-26T07:15:09.872Z,5.28
2018-07-26T07:17:37.052Z,5.67
2018-07-26T07:20:04.676Z,6.10
2018-07-26T07:22:31.853Z,5.67
2018-07-26T07:24:59.038Z,5.40
2018-07-26T07:27:26.223Z,4.17
2018-07-26T07:29:53.395Z,5.07
2018-07-26T07:32:20.600Z,5.83
2018-07-26T07:34:47.789Z,5.80
2018-07-26T07:37:14.958Z,5.57
2018-07-26T07:39:42.137Z,5.80
2018-07-26T07:42:09.296Z,6.10
2018-07-26T07:44:36.498Z,5.10
2018-07-26T07:47:03.675Z,5.30
2018-07-26T07:49:30.843Z,5.60
2018-07-26T07:51:58.031Z,5.90
2018-07-26T07:54:25.205Z,4.70
2018-07-26T07:56:52.375Z,5.30
2018-07-26T07:59:19.961Z,4.10
2018-07-26T08:01:47.120Z,4.57
2018-07-26T08:04:14.281Z,4.63
2018-07-26T08:06:41.500Z,4.20
2018-07-26T08:09:09.830Z,4.03
2018-07-26T08:11:37.001Z,4.27
2018-07-26T08:14:04.189Z,4.27
2018-07-26T08:16:31.377Z,4.00
2018-07-26T08:18:58.566Z,4.27
2018-07-26T08:21:25.824Z,4.17
2018-07-26T08:23:52.977Z,4.10
2018-07-26T08:26:20.160Z,3.87
2018-07-26T08:28:47.373Z,3.40
2018-07-26T08:31:14.606Z,3.57
2018-07-26T08:33:41.793Z,3.30
2018-07-26T08:36:08.973Z,3.03
2018-07-26T08:38:36.149Z,3.40
2018-07-26T08:41:03.346Z,2.90
2018-07-26T08:43:30.546Z,2.50
2018-07-26T08:45:57.738Z,3.00
2018-07-26T08:48:24.941Z,2.63
2018-07-26T08:50:52.121Z,2.50
2018-07-26T08:53:19.389Z,2.60
2018-07-26T08:55:46.577Z,2.40
2018-07-26T08:58:13.750Z,2.70
2018-07-26T09:00:40.924Z,2.33
2018-07-26T09:03:08.121Z,2.60
2018-07-26T09:05:35.295Z,2.00
2018-07-26T09:08:02.493Z,2.80
2018-07-26T09:10:29.697Z,2.60
2018-07-26T09:12:56.871Z,3.10
2018-07-26T09:15:24.060Z,2.00
2018-07-26T09:17:51.254Z,2.90
2018-07-26T09:20:18.448Z,2.10
2018-07-26T09:22:45.632Z,2.50
2018-07-26T09:25:12.842Z,3.03
2018-07-26T09:27:40.027Z,2.80
2018-07-26T09:30:07.698Z,2.53
2018-07-26T09:32:34.911Z,1.47
2018-07-26T09:35:02.110Z,1.73
2018-07-26T09:37:29.309Z,2.30
2018-07-26T09:39:56.511Z,1.80
2018-07-26T09:42:23.704Z,2.50
2018-07-26T09:44:50.887Z,2.53
2018-07-26T09:47:18.115Z,2.80
2018-07-26T09:49:45.300Z,2.90
2018-07-26T09:52:12.474Z,3.00
2018-07-26T09:54:39.661Z,3.00
2018-07-26T09:57:06.885Z,3.07
2018-07-26T09:59:34.088Z,3.27
2018-07-26T10:02:01.261Z,3.00
2018-07-26T10:04:28.504Z,2.90
2018-07-26T10:06:55.812Z,3.43
2018-07-26T10:09:22.977Z,2.80
2018-07-26T10:11:50.182Z,8.27
2018-07-26T10:14:17.394Z,2.57
2018-07-26T10:16:44.557Z,3.13
2018-07-26T10:19:11.753Z,2.87
2018-07-26T10:21:38.930Z,3.27
2018-07-26T10:24:06.121Z,3.60
2018-07-26T10:26:33.324Z,3.30
2018-07-26T10:29:00.500Z,3.20
2018-07-26T10:31:27.716Z,3.00
2018-07-26T10:33:54.890Z,3.00
2018-07-26T10:36:22.290Z,15.37
2018-07-26T10:38:49.490Z,14.30
2018-07-26T10:41:16.708Z,9.70
2018-07-26T10:43:43.897Z,9.53
2018-07-26T10:46:11.114Z,25.70
2018-07-26T10:48:38.330Z,10.97
2018-07-26T10:51:05.779Z,13.73
2018-07-26T10:53:32.977Z,8.13
2018-07-26T10:56:00.651Z,12.07
2018-07-26T10:58:28.179Z,13.33
2018-07-26T11:00:55.356Z,9.13
2018-07-26T11:03:23.521Z,11.47
2018-07-26T11:05:51.632Z,5.07
2018-07-26T11:08:19.163Z,5.80
2018-07-26T11:10:46.438Z,6.00
2018-07-26T11:13:13.620Z,10.13
2018-07-26T11:15:40.792Z,9.17
2018-07-26T11:18:07.977Z,7.03
2018-07-26T11:20:35.177Z,9.47
2018-07-26T11:23:02.384Z,7.33
2018-07-26T11:25:29.645Z,9.83
2018-07-26T11:27:56.794Z,8.10
2018-07-26T11:30:24.181Z,8.57
2018-07-26T11:32:51.498Z,9.60
2018-07-26T11:35:18.688Z,5.70
2018-07-26T11:37:45.889Z,3.90
2018-07-26T11:40:13.076Z,5.43
2018-07-26T11:42:40.279Z,86.23
2018-07-26T11:45:08.309Z,34.20
2018-07-26T11:47:35.660Z,47.43
2018-07-26T11:50:02.893Z,31.23
2018-07-26T11:52:30.079Z,61.83
2018-07-26T11:54:57.287Z,33.03
2018-07-26T12:00:23.542Z,34.53
2018-07-26T12:02:50.820Z,14.03
2018-07-26T12:05:18.008Z,8.43
2018-07-26T12:07:45.193Z,4.27
2018-07-26T12:10:12.376Z,10.10
2018-07-26T12:12:39.553Z,6.20
2018-07-26T12:15:06.736Z,3.73
2018-07-26T12:17:33.990Z,5.30
2018-07-26T12:20:01.195Z,7.00
2018-07-26T12:22:28.382Z,2.27
2018-07-26T12:24:55.568Z,2.30
2018-07-26T12:27:22.761Z,3.27
2018-07-26T12:29:49.936Z,6.20
2018-07-26T12:32:17.127Z,2.60
2018-07-26T12:34:44.312Z,2.50
2018-07-26T12:37:11.496Z,2.63
2018-07-26T12:39:38.688Z,2.70
2018-07-26T12:42:05.872Z,3.10
2018-07-26T12:44:33.045Z,2.67
2018-07-26T12:47:00.216Z,2.50
2018-07-26T12:49:27.408Z,2.90
2018-07-26T12:51:54.591Z,2.50
2018-07-26T12:54:21.753Z,3.00
2018-07-26T12:56:49.019Z,2.80
2018-07-26T12:59:16.222Z,3.30
2018-07-26T13:01:44.362Z,3.70
2018-07-26T13:04:11.549Z,3.20
2018-07-26T13:06:38.744Z,2.83
2018-07-26T13:09:06.849Z,2.77
2018-07-26T13:11:34.012Z,2.53
2018-07-26T13:14:01.200Z,3.50
2018-07-26T13:16:28.373Z,2.67
2018-07-26T13:18:55.539Z,3.10
2018-07-26T13:21:22.728Z,2.80
2018-07-26T13:23:49.900Z,2.73
2018-07-26T13:26:17.085Z,2.80
2018-07-26T13:28:44.285Z,2.97
2018-07-26T13:31:11.457Z,2.73
2018-07-26T13:33:38.642Z,2.90
2018-07-26T13:36:05.837Z,2.80
2018-07-26T13:38:33.000Z,2.87
2018-07-26T13:41:00.179Z,2.37
2018-07-26T13:43:27.376Z,2.67
2018-07-26T13:45:54.557Z,2.33
2018-07-26T13:48:21.740Z,2.70
2018-07-26T13:50:48.923Z,2.30
2018-07-26T13:53:16.094Z,3.77
2018-07-26T13:55:43.265Z,3.40
2018-07-26T13:58:10.464Z,1.97
2018-07-26T14:00:37.674Z,2.43
2018-07-26T14:03:04.850Z,1.93
2018-07-26T14:05:32.041Z,1.70
2018-07-26T14:07:59.382Z,2.20
2018-07-26T14:10:26.557Z,1.60
2018-07-26T14:12:53.845Z,2.07
2018-07-26T14:15:21.028Z,1.67
2018-07-26T14:17:48.244Z,3.07
2018-07-26T14:20:15.440Z,2.00
2018-07-26T14:22:42.640Z,2.60
2018-07-26T14:25:09.836Z,2.13
2018-07-26T14:27:37.070Z,2.70
2018-07-26T14:30:04.728Z,2.67
2018-07-26T14:32:31.961Z,2.17
2018-07-26T14:34:59.140Z,2.07
2018-07-26T14:37:26.314Z,2.00
2018-07-26T14:39:53.574Z,3.37
2018-07-26T14:42:20.765Z,2.60
2018-07-26T14:44:47.947Z,2.40
2018-07-26T14:47:15.170Z,2.27
2018-07-26T14:49:42.353Z,2.53
2018-07-26T14:52:09.557Z,2.63
2018-07-26T14:54:36.788Z,3.13
2018-07-26T14:57:03.969Z,2.90
2018-07-26T14:59:31.149Z,3.00
2018-07-26T15:01:58.332Z,2.73
2018-07-26T15:04:25.559Z,3.37
2018-07-26T15:06:52.772Z,3.17
2018-07-26T15:09:19.956Z,2.50
2018-07-26T15:11:47.448Z,1.93
2018-07-26T15:14:14.702Z,2.70
2018-07-26T15:16:41.853Z,2.60
2018-07-26T15:19:09.160Z,2.77
2018-07-26T15:21:36.382Z,2.53
2018-07-26T15:24:03.573Z,3.20
2018-07-26T15:26:30.781Z,2.70
2018-07-26T15:28:58.005Z,2.20
2018-07-26T15:31:25.242Z,2.27
2018-07-26T15:33:52.420Z,2.80
2018-07-26T15:36:19.601Z,2.50
2018-07-26T15:38:46.768Z,2.60
2018-07-26T15:41:13.984Z,2.90
2018-07-26T15:43:41.181Z,3.47
2018-07-26T15:46:08.349Z,2.93
2018-07-26T15:48:35.522Z,3.30
2018-07-26T15:51:02.743Z,2.83
2018-07-26T15:53:29.888Z,3.03
2018-07-26T15:55:57.086Z,3.00
2018-07-26T15:58:24.252Z,2.90
2018-07-26T16:00:51.426Z,3.60
2018-07-26T16:03:18.671Z,4.10
2018-07-26T16:05:45.863Z,4.20
2018-07-26T16:08:13.060Z,3.50
2018-07-26T16:10:40.258Z,3.67
2018-07-26T16:13:07.428Z,3.67
2018-07-26T16:15:34.617Z,2.80
2018-07-26T16:18:01.923Z,4.03
2018-07-26T16:20:28.998Z,2.40
2018-07-26T16:22:56.190Z,4.80
2018-07-26T16:25:23.861Z,3.93
2018-07-26T16:27:51.105Z,2.70
2018-07-26T16:30:18.276Z,3.27
2018-07-26T16:32:45.491Z,3.40
2018-07-26T16:35:12.682Z,3.17
2018-07-26T16:37:39.870Z,2.90
2018-07-26T16:40:07.173Z,2.70
2018-07-26T16:42:34.269Z,3.40
2018-07-26T16:45:01.487Z,4.10
2018-07-26T16:47:28.676Z,3.80
2018-07-26T16:49:55.855Z,3.93
2018-07-26T16:52:23.048Z,3.10
2018-07-26T16:54:50.313Z,3.47
2018-07-26T16:57:17.480Z,3.87
2018-07-26T16:59:44.695Z,4.10
2018-07-26T17:02:11.928Z,3.60
2018-07-26T17:04:39.096Z,3.77
2018-07-26T17:07:06.345Z,3.77
2018-07-26T17:09:33.530Z,3.30
2018-07-26T17:12:00.733Z,3.20
2018-07-26T17:14:27.911Z,4.83
2018-07-26T17:16:55.093Z,4.63
2018-07-26T17:19:22.276Z,4.50
2018-07-26T17:21:49.478Z,7.23
2018-07-26T17:24:16.647Z,4.57
2018-07-26T17:26:43.853Z,3.83
2018-07-26T17:29:11.091Z,4.00
2018-07-26T17:31:38.240Z,3.90
2018-07-26T17:34:05.414Z,4.30
2018-07-26T17:36:32.592Z,4.10
2018-07-26T17:38:59.791Z,3.60
2018-07-26T17:41:26.972Z,3.70
2018-07-26T17:43:54.119Z,3.90
2018-07-26T17:46:21.283Z,4.17
2018-07-26T17:48:48.510Z,4.30
2018-07-26T17:51:15.757Z,3.87
2018-07-26T17:53:42.914Z,3.33
2018-07-26T17:56:10.085Z,4.57
2018-07-26T17:58:37.289Z,4.00
2018-07-26T18:01:04.464Z,4.70
2018-07-26T18:03:31.624Z,4.60
2018-07-26T18:05:58.825Z,4.00
2018-07-26T18:08:25.975Z,4.60
2018-07-26T18:10:53.153Z,4.90
2018-07-26T18:13:20.329Z,4.97
2018-07-26T18:15:47.489Z,5.50
2018-07-26T18:18:14.657Z,4.47
2018-07-26T18:20:41.843Z,5.20
2018-07-26T18:23:09.022Z,4.17
2018-07-26T18:25:36.297Z,4.63
2018-07-26T18:28:03.419Z,4.33
2018-07-26T18:30:30.625Z,3.77
2018-07-26T18:32:57.796Z,4.03
2018-07-26T18:35:24.958Z,4.40
2018-07-26T18:37:52.144Z,3.97
2018-07-26T18:40:19.333Z,4.00
2018-07-26T18:42:46.497Z,3.93
2018-07-26T18:45:13.685Z,4.07
2018-07-26T18:47:40.973Z,4.43
2018-07-26T18:50:09.051Z,4.50
2018-07-26T18:52:36.246Z,4.03
2018-07-26T18:55:03.495Z,3.47
2018-07-26T18:57:31.024Z,4.67
2018-07-26T18:59:58.196Z,4.47
2018-07-26T19:02:25.848Z,4.00
2018-07-26T19:04:53.036Z,4.60
2018-07-26T19:07:20.214Z,4.70
2018-07-26T19:09:47.401Z,3.77
2018-07-26T19:12:14.592Z,4.37
2018-07-26T19:14:41.752Z,4.97
2018-07-26T19:17:08.941Z,4.03
2018-07-26T19:19:36.093Z,4.40
2018-07-26T19:22:03.275Z,3.33
2018-07-26T19:24:30.436Z,4.50
2018-07-26T19:26:57.617Z,4.30
2018-07-26T19:29:24.807Z,3.90
2018-07-26T19:31:51.986Z,3.83
2018-07-26T19:34:19.168Z,3.80
2018-07-26T19:36:46.341Z,4.17
2018-07-26T19:39:13.697Z,5.00
2018-07-26T19:41:41.549Z,3.23
2018-07-26T19:44:08.763Z,4.03
2018-07-26T19:46:35.928Z,4.30
2018-07-26T19:49:03.282Z,4.20
2018-07-26T19:51:30.451Z,4.17
2018-07-26T19:53:57.692Z,4.43
2018-07-26T19:56:24.854Z,4.50
2018-07-26T19:58:52.537Z,4.30
2018-07-26T20:01:19.702Z,4.03
2018-07-26T20:03:47.045Z,4.53
2018-07-26T20:06:14.157Z,4.67
2018-07-26T20:08:41.337Z,4.50
2018-07-26T20:11:08.577Z,3.30
2018-07-26T20:13:35.709Z,4.40
2018-07-26T20:16:02.947Z,5.07
2018-07-26T20:18:30.096Z,5.30
2018-07-26T20:20:57.282Z,4.40
2018-07-26T20:23:24.461Z,4.40
2018-07-26T20:25:51.616Z,3.97
2018-07-26T20:28:18.800Z,4.40
2018-07-26T20:30:45.988Z,3.77
2018-07-26T20:33:13.159Z,3.63
2018-07-26T20:35:40.343Z,4.92
2018-07-26T20:38:07.524Z,4.97
2018-07-26T20:40:34.703Z,4.78
2018-07-26T20:43:01.886Z,4.47
2018-07-26T20:45:29.089Z,4.33
2018-07-26T20:47:56.256Z,4.28
2018-07-26T20:50:23.432Z,4.67
2018-07-26T20:52:50.613Z,4.80
2018-07-26T20:55:17.818Z,5.23
2018-07-26T20:57:45.012Z,5.00
2018-07-26T21:00:13.241Z,4.85
2018-07-26T21:02:40.669Z,4.27
2018-07-26T21:05:07.877Z,4.67
2018-07-26T21:07:35.073Z,4.33
2018-07-26T21:10:02.318Z,4.75
2018-07-26T21:12:29.508Z,4.75
2018-07-26T21:14:56.800Z,5.03
2018-07-26T21:17:24.013Z,3.65
2018-07-26T21:19:51.225Z,4.50
2018-07-26T21:22:18.429Z,4.60
2018-07-26T21:24:45.596Z,4.00
2018-07-26T21:27:12.793Z,4.47
2018-07-26T21:29:39.985Z,3.90
2018-07-26T21:32:07.165Z,4.95
2018-07-26T21:34:34.341Z,4.72
2018-07-26T21:37:01.540Z,4.65
2018-07-26T21:39:28.709Z,4.45
2018-07-26T21:41:55.873Z,4.42
2018-07-26T21:44:23.068Z,4.42
2018-07-26T21:46:50.256Z,4.50
2018-07-26T21:49:17.436Z,4.45
2018-07-26T21:51:44.639Z,4.65
2018-07-26T21:54:11.813Z,4.70
2018-07-26T21:56:38.976Z,4.60
2018-07-26T21:59:06.201Z,4.22
2018-07-26T22:01:33.392Z,4.80
2018-07-26T22:04:00.558Z,4.00
2018-07-26T22:06:27.752Z,3.77
2018-07-26T22:08:54.951Z,4.25
2018-07-26T22:11:22.121Z,4.42
2018-07-26T22:13:49.294Z,4.40
2018-07-26T22:16:16.543Z,4.10
2018-07-26T22:18:43.628Z,4.83
2018-07-26T22:21:10.800Z,4.45
2018-07-26T22:23:38.005Z,5.05
2018-07-26T22:26:05.181Z,4.67
2018-07-26T22:28:32.385Z,5.10
2018-07-26T22:30:59.569Z,4.20
2018-07-26T22:33:26.721Z,4.55
2018-07-26T22:35:53.979Z,5.00
2018-07-26T22:38:21.192Z,4.67
2018-07-26T22:40:48.379Z,4.70
2018-07-26T22:43:15.531Z,4.00
2018-07-26T22:45:42.702Z,4.80
2018-07-26T22:48:09.903Z,4.92
2018-07-26T22:50:37.086Z,4.30
2018-07-26T22:53:04.261Z,4.35
2018-07-26T22:55:31.469Z,4.28
2018-07-26T22:57:58.954Z,5.03
2018-07-26T23:00:26.135Z,5.30
2018-07-26T23:02:53.309Z,5.58
2018-07-26T23:05:20.518Z,5.45
2018-07-26T23:07:47.705Z,5.00
2018-07-26T23:10:14.864Z,5.75
2018-07-26T23:12:42.034Z,4.90
2018-07-26T23:15:10.313Z,5.20
2018-07-26T23:17:37.889Z,5.40
2018-07-26T23:20:05.222Z,6.60
2018-07-26T23:22:32.374Z,5.30
2018-07-26T23:24:59.577Z,5.40
2018-07-26T23:27:26.735Z,5.03
2018-07-26T23:29:53.883Z,4.95
2018-07-26T23:32:21.073Z,4.37
2018-07-26T23:34:48.232Z,5.67
2018-07-26T23:37:15.400Z,5.90
2018-07-26T23:39:42.578Z,7.55
2018-07-26T23:42:09.757Z,9.73
2018-07-26T23:44:36.941Z,11.20
2018-07-26T23:47:04.137Z,9.33
2018-07-26T23:49:31.305Z,8.68
2018-07-26T23:51:58.505Z,10.53
2018-07-26T23:54:25.690Z,10.18
2018-07-26T23:56:52.877Z,8.45
2018-07-26T23:59:20.052Z,8.35
